sensor_id;sensor_type;location;lat;lon;timestamp;temperature;humidity
66096;SHT31;53861;53.422;14.530;2023-02-05T00:01:19;-2.32;88.42
66096;SHT31;53861;53.422;14.530;2023-02-05T00:03:47;-2.25;88.37
66096;SHT31;53861;53.422;14.530;2023-02-05T00:06:20;-2.18;88.97
66096;SHT31;53861;53.422;14.530;2023-02-05T00:08:47;-2.21;88.27
66096;SHT31;53861;53.422;14.530;2023-02-05T00:11:14;-2.04;88.98
66096;SHT31;53861;53.422;14.530;2023-02-05T00:13:41;-2.09;87.23
66096;SHT31;53861;53.422;14.530;2023-02-05T00:16:09;-2.22;87.86
66096;SHT31;53861;53.422;14.530;2023-02-05T00:18:36;-2.28;87.80
66096;SHT31;53861;53.422;14.530;2023-02-05T00:21:04;-2.19;88.31
66096;SHT31;53861;53.422;14.530;2023-02-05T00:23:33;-2.18;87.66
66096;SHT31;53861;53.422;14.530;2023-02-05T00:26:00;-2.25;87.87
66096;SHT31;53861;53.422;14.530;2023-02-05T00:28:29;-2.25;88.21
66096;SHT31;53861;53.422;14.530;2023-02-05T00:30:56;-2.23;88.15
66096;SHT31;53861;53.422;14.530;2023-02-05T00:33:26;-2.14;88.84
66096;SHT31;53861;53.422;14.530;2023-02-05T00:35:53;-2.08;88.11
66096;SHT31;53861;53.422;14.530;2023-02-05T00:38:20;-2.15;87.35
66096;SHT31;53861;53.422;14.530;2023-02-05T00:40:49;-1.99;88.25
66096;SHT31;53861;53.422;14.530;2023-02-05T00:43:16;-1.99;87.71
66096;SHT31;53861;53.422;14.530;2023-02-05T00:45:45;-1.92;87.68
66096;SHT31;53861;53.422;14.530;2023-02-05T00:48:12;-1.88;87.43
66096;SHT31;53861;53.422;14.530;2023-02-05T00:50:40;-1.87;87.49
66096;SHT31;53861;53.422;14.530;2023-02-05T00:53:07;-1.94;87.57
66096;SHT31;53861;53.422;14.530;2023-02-05T00:55:37;-1.95;87.78
66096;SHT31;53861;53.422;14.530;2023-02-05T00:58:06;-2.05;87.58
66096;SHT31;53861;53.422;14.530;2023-02-05T01:00:33;-1.94;87.77
66096;SHT31;53861;53.422;14.530;2023-02-05T01:03:00;-1.78;87.57
66096;SHT31;53861;53.422;14.530;2023-02-05T01:05:27;-1.75;87.28
66096;SHT31;53861;53.422;14.530;2023-02-05T01:07:55;-1.82;86.70
66096;SHT31;53861;53.422;14.530;2023-02-05T01:10:22;-1.90;87.13
66096;SHT31;53861;53.422;14.530;2023-02-05T01:12:49;-1.88;87.32
66096;SHT31;53861;53.422;14.530;2023-02-05T01:15:19;-1.94;86.96
66096;SHT31;53861;53.422;14.530;2023-02-05T01:17:46;-1.97;87.40
66096;SHT31;53861;53.422;14.530;2023-02-05T01:20:14;-2.01;87.95
66096;SHT31;53861;53.422;14.530;2023-02-05T01:22:41;-2.11;88.10
66096;SHT31;53861;53.422;14.530;2023-02-05T01:25:08;-2.12;88.47
66096;SHT31;53861;53.422;14.530;2023-02-05T01:27:35;-2.15;87.96
66096;SHT31;53861;53.422;14.530;2023-02-05T01:30:05;-2.21;88.33
66096;SHT31;53861;53.422;14.530;2023-02-05T01:32:34;-2.11;88.75
66096;SHT31;53861;53.422;14.530;2023-02-05T01:35:01;-2.26;87.89
66096;SHT31;53861;53.422;14.530;2023-02-05T01:37:28;-2.31;87.27
66096;SHT31;53861;53.422;14.530;2023-02-05T01:39:55;-2.41;87.73
66096;SHT31;53861;53.422;14.530;2023-02-05T01:42:23;-2.23;89.05
66096;SHT31;53861;53.422;14.530;2023-02-05T01:47:40;-2.38;88.43
66096;SHT31;53861;53.422;14.530;2023-02-05T01:50:07;-2.42;88.99
66096;SHT31;53861;53.422;14.530;2023-02-05T01:52:36;-2.57;88.08
66096;SHT31;53861;53.422;14.530;2023-02-05T01:55:03;-2.55;88.88
66096;SHT31;53861;53.422;14.530;2023-02-05T01:57:31;-2.63;88.83
66096;SHT31;53861;53.422;14.530;2023-02-05T01:59:58;-2.63;89.25
66096;SHT31;53861;53.422;14.530;2023-02-05T02:02:25;-2.65;88.61
66096;SHT31;53861;53.422;14.530;2023-02-05T02:04:56;-2.56;89.03
66096;SHT31;53861;53.422;14.530;2023-02-05T02:07:24;-2.63;88.98
66096;SHT31;53861;53.422;14.530;2023-02-05T02:09:51;-2.62;88.97
66096;SHT31;53861;53.422;14.530;2023-02-05T02:12:20;-2.67;88.89
66096;SHT31;53861;53.422;14.530;2023-02-05T02:14:51;-2.72;88.69
66096;SHT31;53861;53.422;14.530;2023-02-05T02:17:19;-2.81;87.02
66096;SHT31;53861;53.422;14.530;2023-02-05T02:19:48;-2.79;89.46
66096;SHT31;53861;53.422;14.530;2023-02-05T02:22:24;-2.73;89.33
66096;SHT31;53861;53.422;14.530;2023-02-05T02:25:02;-2.72;88.65
66096;SHT31;53861;53.422;14.530;2023-02-05T02:27:36;-2.75;89.05
66096;SHT31;53861;53.422;14.530;2023-02-05T02:30:05;-2.86;88.11
66096;SHT31;53861;53.422;14.530;2023-02-05T02:32:35;-2.79;89.43
66096;SHT31;53861;53.422;14.530;2023-02-05T02:35:07;-2.86;88.55
66096;SHT31;53861;53.422;14.530;2023-02-05T02:37:46;-2.76;89.66
66096;SHT31;53861;53.422;14.530;2023-02-05T02:43:27;-2.66;88.61
66096;SHT31;53861;53.422;14.530;2023-02-05T02:45:57;-2.67;88.65
66096;SHT31;53861;53.422;14.530;2023-02-05T02:48:25;-2.75;88.17
66096;SHT31;53861;53.422;14.530;2023-02-05T02:50:54;-2.70;88.87
66096;SHT31;53861;53.422;14.530;2023-02-05T02:53:24;-2.81;88.43
66096;SHT31;53861;53.422;14.530;2023-02-05T02:55:52;-2.96;88.05
66096;SHT31;53861;53.422;14.530;2023-02-05T02:58:21;-2.81;89.63
66096;SHT31;53861;53.422;14.530;2023-02-05T03:00:50;-2.77;89.05
66096;SHT31;53861;53.422;14.530;2023-02-05T03:03:18;-2.84;89.34
66096;SHT31;53861;53.422;14.530;2023-02-05T03:05:47;-2.86;88.97
66096;SHT31;53861;53.422;14.530;2023-02-05T03:08:18;-2.90;89.65
66096;SHT31;53861;53.422;14.530;2023-02-05T03:10:47;-3.00;89.05
66096;SHT31;53861;53.422;14.530;2023-02-05T03:13:19;-2.84;89.63
66096;SHT31;53861;53.422;14.530;2023-02-05T03:15:46;-2.96;88.62
66096;SHT31;53861;53.422;14.530;2023-02-05T03:18:14;-2.96;88.36
66096;SHT31;53861;53.422;14.530;2023-02-05T03:20:44;-2.84;89.13
66096;SHT31;53861;53.422;14.530;2023-02-05T03:23:15;-2.75;88.82
66096;SHT31;53861;53.422;14.530;2023-02-05T03:25:42;-2.69;88.81
66096;SHT31;53861;53.422;14.530;2023-02-05T03:28:09;-2.65;88.80
66096;SHT31;53861;53.422;14.530;2023-02-05T03:30:38;-2.66;88.66
66096;SHT31;53861;53.422;14.530;2023-02-05T03:33:15;-2.66;88.89
66096;SHT31;53861;53.422;14.530;2023-02-05T03:35:48;-2.56;88.74
66096;SHT31;53861;53.422;14.530;2023-02-05T03:38:26;-2.52;87.97
66096;SHT31;53861;53.422;14.530;2023-02-05T03:40:56;-2.48;88.36
66096;SHT31;53861;53.422;14.530;2023-02-05T03:43:28;-2.50;88.16
66096;SHT31;53861;53.422;14.530;2023-02-05T03:45:59;-2.63;88.23
66096;SHT31;53861;53.422;14.530;2023-02-05T03:48:31;-2.67;88.68
66096;SHT31;53861;53.422;14.530;2023-02-05T03:51:11;-2.67;88.54
66096;SHT31;53861;53.422;14.530;2023-02-05T03:53:42;-2.60;88.93
66096;SHT31;53861;53.422;14.530;2023-02-05T03:56:16;-2.60;88.29
66096;SHT31;53861;53.422;14.530;2023-02-05T03:58:44;-2.66;88.87
66096;SHT31;53861;53.422;14.530;2023-02-05T04:01:12;-2.66;89.19
66096;SHT31;53861;53.422;14.530;2023-02-05T04:03:39;-2.63;88.83
66096;SHT31;53861;53.422;14.530;2023-02-05T04:06:07;-2.59;89.40
66096;SHT31;53861;53.422;14.530;2023-02-05T04:08:38;-2.59;89.20
66096;SHT31;53861;53.422;14.530;2023-02-05T04:11:05;-2.60;88.89
66096;SHT31;53861;53.422;14.530;2023-02-05T04:13:34;-2.75;88.59
66096;SHT31;53861;53.422;14.530;2023-02-05T04:16:01;-2.75;89.11
66096;SHT31;53861;53.422;14.530;2023-02-05T04:18:28;-2.81;89.45
66096;SHT31;53861;53.422;14.530;2023-02-05T04:20:55;-2.79;89.72
66096;SHT31;53861;53.422;14.530;2023-02-05T04:23:23;-2.73;89.62
66096;SHT31;53861;53.422;14.530;2023-02-05T04:25:53;-2.67;89.91
66096;SHT31;53861;53.422;14.530;2023-02-05T04:28:20;-2.84;89.77
66096;SHT31;53861;53.422;14.530;2023-02-05T04:30:50;-2.94;89.34
66096;SHT31;53861;53.422;14.530;2023-02-05T04:33:17;-2.93;89.51
66096;SHT31;53861;53.422;14.530;2023-02-05T04:35:46;-3.07;89.52
66096;SHT31;53861;53.422;14.530;2023-02-05T04:38:16;-3.05;88.74
66096;SHT31;53861;53.422;14.530;2023-02-05T04:40:46;-3.00;90.00
66096;SHT31;53861;53.422;14.530;2023-02-05T04:43:17;-3.12;89.47
66096;SHT31;53861;53.422;14.530;2023-02-05T04:45:44;-3.22;89.23
66096;SHT31;53861;53.422;14.530;2023-02-05T04:48:11;-3.19;89.58
66096;SHT31;53861;53.422;14.530;2023-02-05T04:50:40;-3.14;90.34
66096;SHT31;53861;53.422;14.530;2023-02-05T04:53:07;-3.28;89.56
66096;SHT31;53861;53.422;14.530;2023-02-05T04:55:34;-3.25;90.42
66096;SHT31;53861;53.422;14.530;2023-02-05T04:58:01;-3.15;90.00
66096;SHT31;53861;53.422;14.530;2023-02-05T05:00:30;-3.22;89.98
66096;SHT31;53861;53.422;14.530;2023-02-05T05:02:59;-3.25;89.90
66096;SHT31;53861;53.422;14.530;2023-02-05T05:05:26;-3.17;90.17
66096;SHT31;53861;53.422;14.530;2023-02-05T05:07:53;-3.08;90.32
66096;SHT31;53861;53.422;14.530;2023-02-05T05:10:23;-3.14;90.20
66096;SHT31;53861;53.422;14.530;2023-02-05T05:12:50;-3.27;89.85
66096;SHT31;53861;53.422;14.530;2023-02-05T05:15:17;-3.25;89.82
66096;SHT31;53861;53.422;14.530;2023-02-05T05:17:46;-3.34;89.77
66096;SHT31;53861;53.422;14.530;2023-02-05T05:20:16;-3.15;90.41
66096;SHT31;53861;53.422;14.530;2023-02-05T05:22:46;-3.18;90.23
66096;SHT31;53861;53.422;14.530;2023-02-05T05:25:13;-3.19;89.75
66096;SHT31;53861;53.422;14.530;2023-02-05T05:27:40;-3.08;89.86
66096;SHT31;53861;53.422;14.530;2023-02-05T05:30:10;-3.22;88.54
66096;SHT31;53861;53.422;14.530;2023-02-05T05:32:38;-3.32;89.79
66096;SHT31;53861;53.422;14.530;2023-02-05T05:35:07;-3.24;90.36
66096;SHT31;53861;53.422;14.530;2023-02-05T05:37:34;-3.22;89.14
66096;SHT31;53861;53.422;14.530;2023-02-05T05:40:01;-3.32;88.95
66096;SHT31;53861;53.422;14.530;2023-02-05T05:42:50;-3.22;89.87
66096;SHT31;53861;53.422;14.530;2023-02-05T05:45:35;-3.22;89.11
66096;SHT31;53861;53.422;14.530;2023-02-05T05:48:04;-3.27;89.54
66096;SHT31;53861;53.422;14.530;2023-02-05T05:50:35;-3.14;88.12
66096;SHT31;53861;53.422;14.530;2023-02-05T05:53:02;-3.12;89.19
66096;SHT31;53861;53.422;14.530;2023-02-05T05:55:29;-3.12;89.00
66096;SHT31;53861;53.422;14.530;2023-02-05T05:57:56;-3.19;89.32
66096;SHT31;53861;53.422;14.530;2023-02-05T06:00:25;-3.05;89.53
66096;SHT31;53861;53.422;14.530;2023-02-05T06:02:52;-3.10;89.14
66096;SHT31;53861;53.422;14.530;2023-02-05T06:05:19;-3.11;88.59
66096;SHT31;53861;53.422;14.530;2023-02-05T06:07:48;-3.24;88.90
66096;SHT31;53861;53.422;14.530;2023-02-05T06:10:15;-3.05;89.81
66096;SHT31;53861;53.422;14.530;2023-02-05T06:12:42;-3.10;89.39
66096;SHT31;53861;53.422;14.530;2023-02-05T06:15:12;-3.07;89.17
66096;SHT31;53861;53.422;14.530;2023-02-05T06:17:40;-3.05;89.66
66096;SHT31;53861;53.422;14.530;2023-02-05T06:20:07;-3.05;89.28
66096;SHT31;53861;53.422;14.530;2023-02-05T06:22:34;-3.05;89.57
66096;SHT31;53861;53.422;14.530;2023-02-05T06:25:03;-3.03;89.00
66096;SHT31;53861;53.422;14.530;2023-02-05T06:27:30;-3.01;89.80
66096;SHT31;53861;53.422;14.530;2023-02-05T06:29:58;-2.79;89.85
66096;SHT31;53861;53.422;14.530;2023-02-05T06:32:24;-2.70;89.14
66096;SHT31;53861;53.422;14.530;2023-02-05T06:34:51;-2.75;88.68
66096;SHT31;53861;53.422;14.530;2023-02-05T06:37:24;-2.70;89.10
66096;SHT31;53861;53.422;14.530;2023-02-05T06:39:53;-2.63;89.21
66096;SHT31;53861;53.422;14.530;2023-02-05T06:42:22;-2.55;89.01
66096;SHT31;53861;53.422;14.530;2023-02-05T06:44:51;-2.56;88.62
66096;SHT31;53861;53.422;14.530;2023-02-05T06:47:19;-2.55;88.72
66096;SHT31;53861;53.422;14.530;2023-02-05T06:49:45;-2.57;88.97
66096;SHT31;53861;53.422;14.530;2023-02-05T06:52:13;-2.59;88.94
66096;SHT31;53861;53.422;14.530;2023-02-05T06:54:40;-2.45;89.19
66096;SHT31;53861;53.422;14.530;2023-02-05T06:57:09;-2.23;89.02
66096;SHT31;53861;53.422;14.530;2023-02-05T06:59:38;-2.12;88.69
66096;SHT31;53861;53.422;14.530;2023-02-05T07:02:05;-2.18;88.08
66096;SHT31;53861;53.422;14.530;2023-02-05T07:04:33;-2.21;88.21
66096;SHT31;53861;53.422;14.530;2023-02-05T07:07:00;-2.18;88.31
66096;SHT31;53861;53.422;14.530;2023-02-05T07:09:28;-2.19;88.15
66096;SHT31;53861;53.422;14.530;2023-02-05T07:11:55;-2.22;88.44
66096;SHT31;53861;53.422;14.530;2023-02-05T07:14:22;-2.11;88.40
66096;SHT31;53861;53.422;14.530;2023-02-05T07:16:50;-2.11;88.17
66096;SHT31;53861;53.422;14.530;2023-02-05T07:19:20;-2.06;88.50
66096;SHT31;53861;53.422;14.530;2023-02-05T07:21:47;-2.05;88.32
66096;SHT31;53861;53.422;14.530;2023-02-05T07:24:14;-1.97;87.98
66096;SHT31;53861;53.422;14.530;2023-02-05T07:26:41;-2.02;87.29
66096;SHT31;53861;53.422;14.530;2023-02-05T07:29:09;-2.02;87.29
66096;SHT31;53861;53.422;14.530;2023-02-05T07:31:36;-2.02;87.51
66096;SHT31;53861;53.422;14.530;2023-02-05T07:34:08;-2.02;87.25
66096;SHT31;53861;53.422;14.530;2023-02-05T07:36:35;-1.98;87.46
66096;SHT31;53861;53.422;14.530;2023-02-05T07:39:02;-1.81;87.55
66096;SHT31;53861;53.422;14.530;2023-02-05T07:41:29;-1.64;86.38
66096;SHT31;53861;53.422;14.530;2023-02-05T07:43:56;-1.59;86.38
66096;SHT31;53861;53.422;14.530;2023-02-05T07:46:23;-1.66;86.20
66096;SHT31;53861;53.422;14.530;2023-02-05T07:48:50;-1.56;87.17
66096;SHT31;53861;53.422;14.530;2023-02-05T07:51:21;-1.67;86.42
66096;SHT31;53861;53.422;14.530;2023-02-05T07:53:54;-1.56;87.16
66096;SHT31;53861;53.422;14.530;2023-02-05T07:56:21;-1.47;87.09
66096;SHT31;53861;53.422;14.530;2023-02-05T07:58:50;-1.43;86.79
66096;SHT31;53861;53.422;14.530;2023-02-05T08:01:17;-1.46;87.09
66096;SHT31;53861;53.422;14.530;2023-02-05T08:03:44;-1.30;87.14
66096;SHT31;53861;53.422;14.530;2023-02-05T08:06:12;-1.36;87.04
66096;SHT31;53861;53.422;14.530;2023-02-05T08:08:41;-1.38;86.95
66096;SHT31;53861;53.422;14.530;2023-02-05T08:11:09;-1.47;87.03
66096;SHT31;53861;53.422;14.530;2023-02-05T08:13:40;-1.36;87.47
66096;SHT31;53861;53.422;14.530;2023-02-05T08:16:08;-1.40;86.93
66096;SHT31;53861;53.422;14.530;2023-02-05T08:18:35;-1.17;86.56
66096;SHT31;53861;53.422;14.530;2023-02-05T08:21:04;-1.13;87.16
66096;SHT31;53861;53.422;14.530;2023-02-05T08:23:31;-1.03;87.20
66096;SHT31;53861;53.422;14.530;2023-02-05T08:26:00;-1.02;86.81
66096;SHT31;53861;53.422;14.530;2023-02-05T08:28:27;-0.98;87.11
66096;SHT31;53861;53.422;14.530;2023-02-05T08:30:59;-0.99;85.60
66096;SHT31;53861;53.422;14.530;2023-02-05T08:33:26;-1.05;86.35
66096;SHT31;53861;53.422;14.530;2023-02-05T08:35:56;-1.06;86.75
66096;SHT31;53861;53.422;14.530;2023-02-05T08:38:26;-0.98;86.83
66096;SHT31;53861;53.422;14.530;2023-02-05T08:40:53;-0.92;86.12
66096;SHT31;53861;53.422;14.530;2023-02-05T08:43:22;-0.91;86.63
66096;SHT31;53861;53.422;14.530;2023-02-05T08:45:50;-0.93;86.60
66096;SHT31;53861;53.422;14.530;2023-02-05T08:48:20;-0.89;87.19
66096;SHT31;53861;53.422;14.530;2023-02-05T08:50:50;-0.75;88.05
66096;SHT31;53861;53.422;14.530;2023-02-05T08:53:18;-0.78;87.35
66096;SHT31;53861;53.422;14.530;2023-02-05T08:55:45;-0.71;86.60
66096;SHT31;53861;53.422;14.530;2023-02-05T08:58:19;-0.69;85.45
66096;SHT31;53861;53.422;14.530;2023-02-05T09:00:48;-0.60;86.43
66096;SHT31;53861;53.422;14.530;2023-02-05T09:03:15;-0.60;86.05
66096;SHT31;53861;53.422;14.530;2023-02-05T09:05:44;-0.55;85.24
66096;SHT31;53861;53.422;14.530;2023-02-05T09:08:11;-0.71;84.76
66096;SHT31;53861;53.422;14.530;2023-02-05T09:10:42;-0.55;85.73
66096;SHT31;53861;53.422;14.530;2023-02-05T09:13:12;-0.41;85.51
66096;SHT31;53861;53.422;14.530;2023-02-05T09:15:40;-0.31;85.78
66096;SHT31;53861;53.422;14.530;2023-02-05T09:18:08;-0.26;83.92
66096;SHT31;53861;53.422;14.530;2023-02-05T09:20:41;-0.17;84.83
66096;SHT31;53861;53.422;14.530;2023-02-05T09:23:08;-0.09;84.73
66096;SHT31;53861;53.422;14.530;2023-02-05T09:25:35;-0.17;83.43
66096;SHT31;53861;53.422;14.530;2023-02-05T09:28:02;-0.16;84.31
66096;SHT31;53861;53.422;14.530;2023-02-05T09:30:29;-0.04;83.80
66096;SHT31;53861;53.422;14.530;2023-02-05T09:32:56;-0.04;82.55
66096;SHT31;53861;53.422;14.530;2023-02-05T09:35:24;-0.09;83.42
66096;SHT31;53861;53.422;14.530;2023-02-05T09:37:51;0.03;83.45
66096;SHT31;53861;53.422;14.530;2023-02-05T09:40:18;0.10;82.70
66096;SHT31;53861;53.422;14.530;2023-02-05T09:42:49;0.14;82.98
66096;SHT31;53861;53.422;14.530;2023-02-05T09:45:23;0.28;84.38
66096;SHT31;53861;53.422;14.530;2023-02-05T09:47:53;0.42;84.56
66096;SHT31;53861;53.422;14.530;2023-02-05T09:50:23;0.54;83.53
66096;SHT31;53861;53.422;14.530;2023-02-05T09:52:56;0.62;81.75
66096;SHT31;53861;53.422;14.530;2023-02-05T09:55:26;0.52;80.80
66096;SHT31;53861;53.422;14.530;2023-02-05T09:57:54;0.69;80.78
66096;SHT31;53861;53.422;14.530;2023-02-05T10:00:29;0.95;80.53
66096;SHT31;53861;53.422;14.530;2023-02-05T10:03:01;1.24;79.24
66096;SHT31;53861;53.422;14.530;2023-02-05T10:05:34;1.13;78.58
66096;SHT31;53861;53.422;14.530;2023-02-05T10:08:07;1.33;78.92
66096;SHT31;53861;53.422;14.530;2023-02-05T10:10:38;1.37;79.50
66096;SHT31;53861;53.422;14.530;2023-02-05T10:13:13;1.39;79.08
66096;SHT31;53861;53.422;14.530;2023-02-05T10:18:30;1.61;80.26
66096;SHT31;53861;53.422;14.530;2023-02-05T10:21:00;1.67;78.11
66096;SHT31;53861;53.422;14.530;2023-02-05T10:23:49;1.75;76.47
66096;SHT31;53861;53.422;14.530;2023-02-05T10:26:17;1.95;76.61
66096;SHT31;53861;53.422;14.530;2023-02-05T10:28:53;1.95;77.05
66096;SHT31;53861;53.422;14.530;2023-02-05T10:31:29;2.36;76.47
66096;SHT31;53861;53.422;14.530;2023-02-05T10:34:03;3.68;75.48
66096;SHT31;53861;53.422;14.530;2023-02-05T10:36:33;5.57;65.45
66096;SHT31;53861;53.422;14.530;2023-02-05T10:39:05;7.71;63.05
66096;SHT31;53861;53.422;14.530;2023-02-05T10:41:37;8.09;57.33
66096;SHT31;53861;53.422;14.530;2023-02-05T10:44:09;8.54;59.96
66096;SHT31;53861;53.422;14.530;2023-02-05T10:46:36;9.15;54.20
66096;SHT31;53861;53.422;14.530;2023-02-05T10:49:05;9.89;53.87
66096;SHT31;53861;53.422;14.530;2023-02-05T10:51:35;9.32;53.57
66096;SHT31;53861;53.422;14.530;2023-02-05T10:54:06;9.73;55.86
66096;SHT31;53861;53.422;14.530;2023-02-05T10:56:40;10.51;51.17
66096;SHT31;53861;53.422;14.530;2023-02-05T10:59:08;10.37;52.92
66096;SHT31;53861;53.422;14.530;2023-02-05T11:01:40;9.77;51.49
66096;SHT31;53861;53.422;14.530;2023-02-05T11:04:10;9.39;54.55
66096;SHT31;53861;53.422;14.530;2023-02-05T11:06:39;9.47;54.00
66096;SHT31;53861;53.422;14.530;2023-02-05T11:09:28;10.78;51.74
66096;SHT31;53861;53.422;14.530;2023-02-05T11:11:55;11.22;50.30
66096;SHT31;53861;53.422;14.530;2023-02-05T11:14:25;10.13;52.28
66096;SHT31;53861;53.422;14.530;2023-02-05T11:16:53;10.58;52.86
66096;SHT31;53861;53.422;14.530;2023-02-05T11:19:20;9.65;52.67
66096;SHT31;53861;53.422;14.530;2023-02-05T11:21:50;9.70;54.60
66096;SHT31;53861;53.422;14.530;2023-02-05T11:24:24;10.25;51.98
66096;SHT31;53861;53.422;14.530;2023-02-05T11:27:18;10.48;52.16
66096;SHT31;53861;53.422;14.530;2023-02-05T11:29:49;10.49;51.58
66096;SHT31;53861;53.422;14.530;2023-02-05T11:32:17;10.96;50.01
66096;SHT31;53861;53.422;14.530;2023-02-05T11:34:44;9.98;51.60
66096;SHT31;53861;53.422;14.530;2023-02-05T11:37:12;8.68;56.58
66096;SHT31;53861;53.422;14.530;2023-02-05T11:39:41;8.17;55.64
66096;SHT31;53861;53.422;14.530;2023-02-05T11:42:14;9.12;53.22
66096;SHT31;53861;53.422;14.530;2023-02-05T11:44:47;8.51;53.17
66096;SHT31;53861;53.422;14.530;2023-02-05T11:47:18;8.94;52.98
66096;SHT31;53861;53.422;14.530;2023-02-05T11:49:48;7.98;55.08
66096;SHT31;53861;53.422;14.530;2023-02-05T11:52:16;8.05;54.25
66096;SHT31;53861;53.422;14.530;2023-02-05T11:54:44;7.44;54.96
66096;SHT31;53861;53.422;14.530;2023-02-05T11:57:25;6.80;55.85
66096;SHT31;53861;53.422;14.530;2023-02-05T11:59:55;5.95;59.39
66096;SHT31;53861;53.422;14.530;2023-02-05T12:02:26;6.55;58.30
66096;SHT31;53861;53.422;14.530;2023-02-05T12:04:54;5.19;60.06
66096;SHT31;53861;53.422;14.530;2023-02-05T12:07:23;5.69;59.06
66096;SHT31;53861;53.422;14.530;2023-02-05T12:09:51;5.40;59.81
66096;SHT31;53861;53.422;14.530;2023-02-05T12:12:25;5.35;60.44
66096;SHT31;53861;53.422;14.530;2023-02-05T12:14:59;4.85;63.55
66096;SHT31;53861;53.422;14.530;2023-02-05T12:17:32;5.56;61.61
66096;SHT31;53861;53.422;14.530;2023-02-05T12:20:03;5.19;60.42
66096;SHT31;53861;53.422;14.530;2023-02-05T12:22:37;5.00;61.17
66096;SHT31;53861;53.422;14.530;2023-02-05T12:25:09;4.84;62.29
66096;SHT31;53861;53.422;14.530;2023-02-05T12:27:42;4.84;61.67
66096;SHT31;53861;53.422;14.530;2023-02-05T12:30:18;4.89;61.34
66096;SHT31;53861;53.422;14.530;2023-02-05T12:32:49;5.06;62.98
66096;SHT31;53861;53.422;14.530;2023-02-05T12:35:22;4.71;63.21
66096;SHT31;53861;53.422;14.530;2023-02-05T12:37:54;4.85;63.26
66096;SHT31;53861;53.422;14.530;2023-02-05T12:43:17;4.37;64.19
66096;SHT31;53861;53.422;14.530;2023-02-05T12:45:50;4.51;63.91
66096;SHT31;53861;53.422;14.530;2023-02-05T12:48:23;4.53;65.26
66096;SHT31;53861;53.422;14.530;2023-02-05T12:50:53;4.36;65.50
66096;SHT31;53861;53.422;14.530;2023-02-05T12:53:28;4.32;67.81
66096;SHT31;53861;53.422;14.530;2023-02-05T12:56:08;4.18;65.75
66096;SHT31;53861;53.422;14.530;2023-02-05T12:58:39;3.89;67.80
66096;SHT31;53861;53.422;14.530;2023-02-05T13:01:10;4.09;69.36
66096;SHT31;53861;53.422;14.530;2023-02-05T13:03:40;4.54;65.93
66096;SHT31;53861;53.422;14.530;2023-02-05T13:06:09;4.45;65.09
66096;SHT31;53861;53.422;14.530;2023-02-05T13:08:39;4.60;66.88
66096;SHT31;53861;53.422;14.530;2023-02-05T13:11:09;4.88;66.75
66096;SHT31;53861;53.422;14.530;2023-02-05T13:13:39;5.39;64.74
66096;SHT31;53861;53.422;14.530;2023-02-05T13:16:11;5.23;62.32
66096;SHT31;53861;53.422;14.530;2023-02-05T13:18:40;4.95;65.42
66096;SHT31;53861;53.422;14.530;2023-02-05T13:21:09;5.36;63.03
66096;SHT31;53861;53.422;14.530;2023-02-05T13:23:59;5.50;61.88
66096;SHT31;53861;53.422;14.530;2023-02-05T13:26:45;5.33;65.55
66096;SHT31;53861;53.422;14.530;2023-02-05T13:29:32;5.16;64.48
66096;SHT31;53861;53.422;14.530;2023-02-05T13:32:02;5.60;62.40
66096;SHT31;53861;53.422;14.530;2023-02-05T13:34:38;6.38;60.06
66096;SHT31;53861;53.422;14.530;2023-02-05T13:37:12;6.22;60.38
66096;SHT31;53861;53.422;14.530;2023-02-05T13:39:51;6.26;62.98
66096;SHT31;53861;53.422;14.530;2023-02-05T13:42:29;6.00;62.54
66096;SHT31;53861;53.422;14.530;2023-02-05T13:47:46;5.30;62.92
66096;SHT31;53861;53.422;14.530;2023-02-05T13:50:25;4.76;64.55
66096;SHT31;53861;53.422;14.530;2023-02-05T13:53:07;4.40;65.48
66096;SHT31;53861;53.422;14.530;2023-02-05T13:55:48;4.37;66.62
66096;SHT31;53861;53.422;14.530;2023-02-05T13:58:20;3.97;66.49
66096;SHT31;53861;53.422;14.530;2023-02-05T14:00:53;4.00;67.52
66096;SHT31;53861;53.422;14.530;2023-02-05T14:03:23;3.85;69.01
66096;SHT31;53861;53.422;14.530;2023-02-05T14:05:51;3.97;67.54
66096;SHT31;53861;53.422;14.530;2023-02-05T14:08:20;4.16;68.12
66096;SHT31;53861;53.422;14.530;2023-02-05T14:10:55;4.20;67.45
66096;SHT31;53861;53.422;14.530;2023-02-05T14:13:24;4.18;67.51
66096;SHT31;53861;53.422;14.530;2023-02-05T14:15:53;4.21;67.24
66096;SHT31;53861;53.422;14.530;2023-02-05T14:18:45;4.36;68.50
66096;SHT31;53861;53.422;14.530;2023-02-05T14:23:55;4.68;67.41
66096;SHT31;53861;53.422;14.530;2023-02-05T14:29:15;4.65;66.38
66096;SHT31;53861;53.422;14.530;2023-02-05T14:31:52;4.06;68.48
66096;SHT31;53861;53.422;14.530;2023-02-05T14:37:02;4.04;68.65
66096;SHT31;53861;53.422;14.530;2023-02-05T14:39:30;3.93;68.56
66096;SHT31;53861;53.422;14.530;2023-02-05T14:41:58;3.96;67.61
66096;SHT31;53861;53.422;14.530;2023-02-05T14:44:26;3.66;69.54
66096;SHT31;53861;53.422;14.530;2023-02-05T14:46:56;3.49;71.47
66096;SHT31;53861;53.422;14.530;2023-02-05T14:49:24;3.25;70.67
66096;SHT31;53861;53.422;14.530;2023-02-05T14:51:52;3.29;69.98
66096;SHT31;53861;53.422;14.530;2023-02-05T14:54:26;3.42;69.52
66096;SHT31;53861;53.422;14.530;2023-02-05T14:57:06;3.49;70.24
66096;SHT31;53861;53.422;14.530;2023-02-05T14:59:37;3.14;72.14
66096;SHT31;53861;53.422;14.530;2023-02-05T15:04:50;2.97;70.54
66096;SHT31;53861;53.422;14.530;2023-02-05T15:07:19;2.77;70.22
66096;SHT31;53861;53.422;14.530;2023-02-05T15:09:49;2.73;71.69
66096;SHT31;53861;53.422;14.530;2023-02-05T15:12:32;2.53;73.67
66096;SHT31;53861;53.422;14.530;2023-02-05T15:15:15;2.43;72.72
66096;SHT31;53861;53.422;14.530;2023-02-05T15:17:52;2.49;74.19
66096;SHT31;53861;53.422;14.530;2023-02-05T15:20:23;2.49;72.41
66096;SHT31;53861;53.422;14.530;2023-02-05T15:22:53;2.46;73.57
66096;SHT31;53861;53.422;14.530;2023-02-05T15:25:26;2.45;71.62
66096;SHT31;53861;53.422;14.530;2023-02-05T15:27:54;2.35;72.16
66096;SHT31;53861;53.422;14.530;2023-02-05T15:30:23;2.32;72.29
66096;SHT31;53861;53.422;14.530;2023-02-05T15:32:51;2.08;73.46
66096;SHT31;53861;53.422;14.530;2023-02-05T15:35:27;2.16;73.57
66096;SHT31;53861;53.422;14.530;2023-02-05T15:37:56;1.95;74.41
66096;SHT31;53861;53.422;14.530;2023-02-05T15:40:28;1.82;75.79
66096;SHT31;53861;53.422;14.530;2023-02-05T15:42:57;1.81;75.30
66096;SHT31;53861;53.422;14.530;2023-02-05T15:45:24;1.68;75.55
66096;SHT31;53861;53.422;14.530;2023-02-05T15:47:58;1.57;77.48
66096;SHT31;53861;53.422;14.530;2023-02-05T15:50:26;1.60;77.13
66096;SHT31;53861;53.422;14.530;2023-02-05T15:52:53;1.57;76.17
66096;SHT31;53861;53.422;14.530;2023-02-05T15:55:21;1.55;75.21
66096;SHT31;53861;53.422;14.530;2023-02-05T15:57:50;1.50;75.69
66096;SHT31;53861;53.422;14.530;2023-02-05T16:00:18;1.43;76.36
66096;SHT31;53861;53.422;14.530;2023-02-05T16:02:51;1.34;75.84
66096;SHT31;53861;53.422;14.530;2023-02-05T16:05:19;1.41;77.04